Time;durP1;ratioP1;P1;durP2;ratioP2;P2;SDS_P1;SDS_P2;PMS_P1;PMS_P2;Temp;Humidity;BMP_temperature;BMP_pressure;BME280_temperature;BME280_humidity;BME280_pressure;Samples;Min_cycle;Max_cycle;Signal;HPM_P1;HPM_P2
2022/05/11 00:02:28;;;;;;;3.70;2.87;;;18.30;99.90;;;;;;1915920;75;21095;-77
2022/05/11 00:05:19;;;;;;;4.58;2.70;;;18.20;99.90;;;;;;1900331;75;21175;-77
2022/05/11 00:08:10;;;;;;;4.53;2.90;;;18.20;99.90;;;;;;1916813;75;21058;-77
2022/05/11 00:11:02;;;;;;;6.25;2.95;;;18.20;99.90;;;;;;1917450;75;21427;-76
2022/05/11 00:13:54;;;;;;;3.47;2.87;;;18.30;99.90;;;;;;1910512;75;21211;-76
2022/05/11 00:16:45;;;;;;;3.22;2.92;;;18.30;99.90;;;;;;1897688;75;21148;-77
2022/05/11 00:19:37;;;;;;;6.03;3.22;;;18.30;99.90;;;;;;1914050;75;21055;-77
2022/05/11 00:22:29;;;;;;;4.10;3.10;;;18.40;99.90;;;;;;1910403;75;21066;-77
2022/05/11 00:25:20;;;;;;;3.35;2.95;;;18.40;99.90;;;;;;1905881;75;21122;-77
2022/05/11 00:28:12;;;;;;;3.92;3.33;;;18.50;99.90;;;;;;1902704;75;21087;-76
2022/05/11 00:31:04;;;;;;;3.90;2.92;;;18.50;99.90;;;;;;1916168;75;21092;-77
2022/05/11 00:33:56;;;;;;;4.50;2.90;;;18.40;99.90;;;;;;1914484;75;21546;-78
2022/05/11 00:36:47;;;;;;;4.22;3.10;;;18.40;99.90;;;;;;1916919;75;21059;-78
2022/05/11 00:39:38;;;;;;;3.75;2.77;;;18.30;99.90;;;;;;1899069;75;21059;-77
2022/05/11 00:42:30;;;;;;;4.72;3.02;;;18.30;99.90;;;;;;1914053;75;21060;-77
2022/05/11 00:45:22;;;;;;;3.08;2.77;;;18.20;99.90;;;;;;1906196;75;22472;-77
2022/05/11 00:50:52;;;;;;;4.33;2.90;;;18.20;99.90;;;;;;1951045;72;22259;-76
2022/05/11 00:56:44;;;;;;;4.22;3.45;;;18.10;99.90;;;;;;1948638;72;22724;-77
2022/05/11 00:59:55;;;;;;;6.17;3.40;;;18.10;99.90;;;;;;1917350;75;21055;-77
2022/05/11 01:03:07;;;;;;;3.20;2.70;;;18.10;99.90;;;;;;1917748;75;21513;-77
2022/05/11 01:05:59;;;;;;;4.85;2.98;;;18.10;99.90;;;;;;1917678;75;21183;-77
2022/05/11 01:09:12;;;;;;;5.33;2.98;;;18.00;99.90;;;;;;1917414;75;21094;-78
2022/05/11 01:14:44;;;;;;;3.83;3.00;;;18.00;99.90;;;;;;1945803;72;22366;-77
2022/05/11 01:17:55;;;;;;;3.52;2.75;;;18.00;99.90;;;;;;1899434;75;21054;-77
2022/05/11 01:21:07;;;;;;;3.47;3.17;;;18.00;99.90;;;;;;1895676;75;21124;-76
2022/05/11 01:24:02;;;;;;;3.35;3.00;;;18.00;99.90;;;;;;1906631;75;21051;-76
2022/05/11 01:27:28;;;;;;;4.08;3.20;;;17.90;99.90;;;;;;1892577;75;21043;-76
2022/05/11 01:30:22;;;;;;;4.42;3.10;;;17.70;99.90;;;;;;1895691;75;21229;-76
2022/05/11 01:33:17;;;;;;;5.25;3.10;;;17.50;99.90;;;;;;1902337;75;21175;-77
2022/05/11 01:36:12;;;;;;;4.97;3.20;;;17.40;99.90;;;;;;1897832;75;21530;-77
2022/05/11 01:39:06;;;;;;;3.25;2.80;;;17.40;99.90;;;;;;1886872;75;21115;-77
2022/05/11 01:41:58;;;;;;;4.05;3.40;;;17.30;99.90;;;;;;1890142;75;21176;-76
2022/05/11 01:44:50;;;;;;;5.17;3.22;;;17.30;99.90;;;;;;1905357;75;21063;-76
2022/05/11 01:50:21;;;;;;;5.40;3.10;;;17.20;99.90;;;;;;1952305;72;22154;-76
2022/05/11 01:53:31;;;;;;;3.77;3.08;;;17.20;99.90;;;;;;1940044;73;21067;-76
2022/05/11 01:56:40;;;;;;;5.72;3.45;;;17.10;99.90;;;;;;1917774;75;21714;-77
2022/05/11 01:59:31;;;;;;;4.05;3.65;;;17.00;99.90;;;;;;1917770;73;21175;-77
2022/05/11 02:08:47;;;;;;;3.90;3.45;;;16.90;99.90;;;;;;1899586;75;21056;-76
2022/05/11 02:14:36;;;;;;;3.58;3.10;;;16.90;99.90;;;;;;1927666;72;22863;-76
2022/05/11 02:17:46;;;;;;;3.80;3.20;;;16.90;99.90;;;;;;1890146;75;21165;-76
2022/05/11 02:20:56;;;;;;;3.55;3.22;;;16.90;99.90;;;;;;1895460;75;21054;-77
2022/05/11 02:23:50;;;;;;;4.25;2.95;;;16.90;99.90;;;;;;1896330;75;21134;-77
2022/05/11 02:27:02;;;;;;;3.47;3.17;;;16.90;99.90;;;;;;1905438;75;21179;-77
2022/05/11 02:29:53;;;;;;;5.20;3.62;;;16.90;99.90;;;;;;1900484;75;21055;-77
2022/05/11 02:35:24;;;;;;;4.50;3.33;;;16.80;99.90;;;;;;1951908;72;22703;-76
2022/05/11 02:38:35;;;;;;;7.78;3.10;;;16.70;99.90;;;;;;1908549;75;21055;-79
2022/05/11 02:41:44;;;;;;;3.87;3.30;;;16.50;99.90;;;;;;1906999;75;21631;-77
2022/05/11 02:44:35;;;;;;;6.40;3.62;;;16.40;99.90;;;;;;1901836;75;21109;-77
2022/05/11 02:47:45;;;;;;;5.95;3.58;;;16.40;99.90;;;;;;1900792;75;21181;-77
2022/05/11 02:50:39;;;;;;;4.87;3.40;;;16.40;99.90;;;;;;1895999;75;21125;-76
2022/05/11 02:53:32;;;;;;;6.10;3.83;;;16.40;99.90;;;;;;1895458;75;21680;-76
2022/05/11 02:56:24;;;;;;;5.12;3.75;;;16.40;99.90;;;;;;1895440;75;21142;-78
2022/05/11 02:59:15;;;;;;;3.70;3.30;;;16.50;99.90;;;;;;1902485;75;21139;-78
2022/05/11 03:04:46;;;;;;;6.17;3.67;;;16.50;99.90;;;;;;1949399;72;22208;-77
2022/05/11 03:07:55;;;;;;;5.83;3.80;;;16.50;99.90;;;;;;1891351;75;21099;-78
2022/05/11 03:11:06;;;;;;;3.50;3.20;;;16.60;99.90;;;;;;1884518;75;21059;-77
2022/05/11 03:13:57;;;;;;;4.90;3.20;;;16.60;99.90;;;;;;1899440;75;21561;-77
2022/05/11 03:17:08;;;;;;;4.83;3.50;;;16.50;99.90;;;;;;1904166;75;21108;-77
2022/05/11 03:20:01;;;;;;;5.30;3.30;;;16.40;99.90;;;;;;1917035;75;21067;-77
2022/05/11 03:22:52;;;;;;;5.17;3.87;;;16.40;99.90;;;;;;1917606;75;21051;-77
2022/05/11 03:25:44;;;;;;;6.08;4.62;;;16.50;99.90;;;;;;1891917;75;21099;-77
2022/05/11 03:28:35;;;;;;;5.90;4.60;;;16.50;99.90;;;;;;1904819;75;21048;-77
2022/05/11 03:31:26;;;;;;;4.22;3.80;;;16.50;99.90;;;;;;1899777;75;21107;-78
2022/05/11 03:37:27;;;;;;;7.95;6.20;;;16.40;99.90;;;;;;1895393;75;21180;-78
2022/05/11 03:40:19;;;;;;;7.08;4.67;;;16.40;99.90;;;;;;1914465;75;21122;-78
2022/05/11 03:43:10;;;;;;;7.22;5.40;;;16.40;99.90;;;;;;1915617;75;21096;-78
2022/05/11 03:46:01;;;;;;;8.95;5.00;;;16.40;99.90;;;;;;1899378;75;21118;-78
2022/05/11 03:48:53;;;;;;;6.65;4.72;;;16.40;99.90;;;;;;1914107;75;21055;-78
2022/05/11 03:51:44;;;;;;;7.28;5.03;;;16.40;99.90;;;;;;1891843;75;21116;-77
2022/05/11 03:54:36;;;;;;;6.83;4.80;;;16.50;99.90;;;;;;1905347;75;21050;-76
2022/05/11 03:57:27;;;;;;;8.30;5.25;;;16.50;99.90;;;;;;1902229;75;21667;-77
2022/05/11 04:00:22;;;;;;;5.50;4.90;;;16.50;99.90;;;;;;1906557;75;21094;-77
2022/05/11 04:03:14;;;;;;;7.00;4.70;;;16.50;99.90;;;;;;1912134;75;21054;-79
2022/05/11 04:06:05;;;;;;;7.95;4.62;;;16.40;99.90;;;;;;1917543;75;21052;-78
2022/05/11 04:08:57;;;;;;;5.53;4.87;;;16.40;99.90;;;;;;1911345;75;21161;-78
2022/05/11 04:14:27;;;;;;;6.75;5.10;;;16.30;99.90;;;;;;1937284;72;22151;-77
2022/05/11 04:17:37;;;;;;;6.15;5.28;;;16.10;99.90;;;;;;1917738;75;21538;-77
2022/05/11 04:20:47;;;;;;;7.28;5.08;;;16.10;99.90;;;;;;1912451;75;21523;-77
2022/05/11 04:26:18;;;;;;;5.78;5.00;;;16.00;99.90;;;;;;1964153;72;22254;-77
2022/05/11 04:29:28;;;;;;;5.25;4.75;;;16.00;99.90;;;;;;1927980;73;21518;-76
2022/05/11 04:32:38;;;;;;;5.70;4.47;;;16.10;99.90;;;;;;1928602;73;21046;-76
2022/05/11 04:35:31;;;;;;;7.00;4.53;;;16.10;99.90;;;;;;1917498;75;21201;-77
2022/05/11 04:38:40;;;;;;;8.05;4.33;;;16.10;99.90;;;;;;1917783;73;21518;-78
2022/05/11 04:41:31;;;;;;;4.83;4.10;;;16.20;99.90;;;;;;1938651;73;21067;-77
2022/05/11 04:44:23;;;;;;;5.47;4.28;;;16.20;99.90;;;;;;1917520;75;21106;-77
2022/05/11 04:47:17;;;;;;;4.22;3.50;;;16.20;99.90;;;;;;1917694;75;21066;-77
2022/05/11 04:50:10;;;;;;;8.03;3.52;;;16.30;99.90;;;;;;1917425;75;21725;-77
2022/05/11 04:53:04;;;;;;;6.58;4.35;;;16.30;99.90;;;;;;1940213;73;21099;-77
2022/05/11 04:55:55;;;;;;;4.83;3.35;;;16.40;99.90;;;;;;1917763;75;21152;-78
2022/05/11 04:58:46;;;;;;;7.58;3.55;;;16.40;99.90;;;;;;1917374;75;21098;-78
2022/05/11 05:04:19;;;;;;;5.12;3.50;;;16.50;99.90;;;;;;1933900;72;22186;-77
2022/05/11 05:10:13;;;;;;;5.87;3.90;;;16.60;99.90;;;;;;1962896;72;22116;-77
2022/05/11 05:13:22;;;;;;;3.62;3.17;;;16.60;99.90;;;;;;1930823;73;21151;-77
2022/05/11 05:16:32;;;;;;;4.03;3.12;;;16.60;99.90;;;;;;1917679;75;21083;-77
2022/05/11 05:19:24;;;;;;;5.80;3.65;;;16.60;99.90;;;;;;1922160;73;21063;-81
2022/05/11 05:22:33;;;;;;;4.55;3.65;;;16.60;99.90;;;;;;1939937;73;21096;-81
2022/05/11 05:25:25;;;;;;;5.42;3.90;;;16.60;99.90;;;;;;1939836;73;21083;-80
2022/05/11 05:34:19;;;;;;;5.20;3.45;;;16.80;99.90;;;;;;1941865;72;22255;-80
2022/05/11 05:40:10;;;;;;;4.78;3.87;;;16.90;99.90;;;;;;1956311;72;22599;-79
2022/05/11 05:43:20;;;;;;;4.65;3.98;;;17.00;99.90;;;;;;1895492;75;21104;-87
2022/05/11 05:46:29;;;;;;;9.03;4.37;;;16.90;99.90;;;;;;1872953;76;21091;-86
2022/05/11 05:49:21;;;;;;;5.55;4.33;;;16.80;99.90;;;;;;1889249;75;21052;-77
2022/05/11 05:52:30;;;;;;;9.20;4.37;;;16.80;99.90;;;;;;1888300;75;21170;-77
2022/05/11 05:58:03;;;;;;;4.83;3.80;;;17.00;99.90;;;;;;1950866;72;22102;-78
2022/05/11 06:01:13;;;;;;;5.70;3.98;;;17.10;99.90;;;;;;1906472;75;21091;-77
2022/05/11 06:04:23;;;;;;;6.00;4.00;;;17.10;99.90;;;;;;1905985;75;21090;-77
2022/05/11 06:09:54;;;;;;;6.15;4.10;;;17.10;99.90;;;;;;1941679;72;22547;-77
2022/05/11 06:13:04;;;;;;;7.28;4.50;;;17.20;99.90;;;;;;1921001;74;21136;-77
2022/05/11 06:16:15;;;;;;;6.17;4.00;;;17.30;99.90;;;;;;1890436;75;21101;-79
2022/05/11 06:19:07;;;;;;;4.53;4.10;;;17.40;99.90;;;;;;1912438;74;21178;-77
2022/05/11 06:22:16;;;;;;;5.97;4.42;;;17.40;99.90;;;;;;1913460;74;21069;-77
2022/05/11 06:25:09;;;;;;;5.92;4.65;;;17.50;99.90;;;;;;1905409;74;21050;-77
2022/05/11 06:28:02;;;;;;;7.10;4.50;;;17.50;99.90;;;;;;1893822;75;21058;-77
2022/05/11 06:30:53;;;;;;;7.25;4.80;;;17.50;99.90;;;;;;1879479;76;21483;-77
2022/05/11 06:36:26;;;;;;;4.90;4.37;;;17.80;99.90;;;;;;1954981;72;22126;-78
2022/05/11 06:39:37;;;;;;;5.25;4.12;;;17.90;99.90;;;;;;1900340;75;21055;-77
2022/05/11 06:45:26;;;;;;;8.00;4.67;;;18.00;99.90;;;;;;1933449;72;22106;-77
2022/05/11 06:48:35;;;;;;;6.83;5.47;;;18.00;99.90;;;;;;1918107;74;21174;-78
2022/05/11 07:01:06;;;;;;;5.15;4.20;;;18.50;99.90;;;;;;1895011;75;20288;-77
2022/05/11 07:03:58;;;;;;;8.45;4.30;;;18.60;99.90;;;;;;1915120;75;21129;-78
2022/05/11 07:09:32;;;;;;;4.78;4.10;;;18.70;99.90;;;;;;1934946;72;22106;-78
2022/05/11 07:12:46;;;;;;;6.00;3.92;;;18.70;99.90;;;;;;1883648;75;21092;-78
2022/05/11 07:15:55;;;;;;;7.05;4.42;;;18.80;99.90;;;;;;1883839;75;21059;-78
2022/05/11 07:21:27;;;;;;;5.15;3.42;;;19.00;99.90;;;;;;1958145;72;22112;-78
2022/05/11 07:24:38;;;;;;;4.20;3.80;;;19.00;99.90;;;;;;1895873;75;21066;-79
2022/05/11 07:27:49;;;;;;;6.62;3.83;;;19.10;99.90;;;;;;1895393;75;21407;-78
2022/05/11 07:30:45;;;;;;;5.47;3.70;;;19.10;99.90;;;;;;1911864;75;21062;-78
2022/05/11 07:33:53;;;;;;;6.25;3.37;;;19.20;99.90;;;;;;1914684;75;21122;-77
2022/05/11 07:36:45;;;;;;;4.53;3.45;;;19.30;99.90;;;;;;1895683;75;21105;-77
2022/05/11 07:39:36;;;;;;;5.15;3.52;;;19.40;99.90;;;;;;1901209;75;21070;-78
2022/05/11 07:42:30;;;;;;;3.47;3.15;;;19.50;99.90;;;;;;1895898;75;21054;-78
2022/05/11 07:45:23;;;;;;;4.78;3.62;;;19.60;99.90;;;;;;1909998;75;21043;-78
2022/05/11 07:48:15;;;;;;;4.33;3.15;;;19.70;99.90;;;;;;1914382;75;21123;-79
2022/05/11 07:51:06;;;;;;;5.47;3.65;;;19.80;99.90;;;;;;1899623;75;21054;-77
2022/05/11 07:53:58;;;;;;;5.22;3.40;;;19.80;99.90;;;;;;1897120;75;21155;-78
2022/05/11 08:03:01;;;;;;;5.53;3.83;;;20.00;99.90;;;;;;1905288;74;21536;-77
2022/05/11 08:06:12;;;;;;;10.20;3.92;;;20.10;99.90;;;;;;1907921;74;21066;-78
2022/05/11 08:11:44;;;;;;;3.98;3.50;;;20.30;99.90;;;;;;1955258;72;22154;-78
2022/05/11 08:14:54;;;;;;;6.60;3.60;;;20.40;99.90;;;;;;1906291;75;21169;-77
2022/05/11 08:20:44;;;;;;;4.28;3.52;;;20.50;99.90;;;;;;1951645;72;22192;-77
2022/05/11 08:23:54;;;;;;;4.30;3.40;;;20.50;99.90;;;;;;1906865;75;21077;-77
2022/05/11 08:27:09;;;;;;;5.47;3.50;;;20.70;99.90;;;;;;1906936;75;21205;-78
2022/05/11 08:33:27;;;;;;;5.25;3.42;;;20.90;99.90;;;;;;1905090;75;21051;-77
2022/05/11 08:36:22;;;;;;;7.55;3.60;;;21.00;99.90;;;;;;1899884;75;21582;-79
2022/05/11 08:39:14;;;;;;;4.15;3.40;;;21.10;99.90;;;;;;1917434;75;21106;-78
2022/05/11 08:42:06;;;;;;;3.92;3.60;;;21.10;99.90;;;;;;1895640;75;21163;-77
2022/05/11 08:45:02;;;;;;;7.10;3.90;;;21.10;99.90;;;;;;1906471;75;21050;-78
2022/05/11 08:47:52;;;;;;;6.60;3.80;;;21.20;99.90;;;;;;1902694;75;21094;-78
2022/05/11 08:50:47;;;;;;;4.42;3.65;;;21.20;99.90;;;;;;1904341;75;21576;-78
2022/05/11 08:53:41;;;;;;;4.22;3.22;;;21.30;99.90;;;;;;1908194;75;21181;-78
2022/05/11 08:56:34;;;;;;;6.62;3.72;;;21.40;99.90;;;;;;1900027;75;21299;-78
2022/05/11 08:59:28;;;;;;;6.40;3.40;;;21.50;99.90;;;;;;1914674;75;21052;-78
2022/05/11 09:05:02;;;;;;;5.53;3.85;;;21.60;99.90;;;;;;1942685;72;22596;-78
2022/05/11 09:08:13;;;;;;;5.78;3.98;;;21.60;99.90;;;;;;1922133;74;21168;-77
2022/05/11 09:11:28;;;;;;;4.85;3.80;;;21.70;99.90;;;;;;1918025;74;21047;-77
2022/05/11 09:14:23;;;;;;;4.67;3.22;;;21.80;99.90;;;;;;1913576;74;21104;-77
2022/05/11 09:17:35;;;;;;;3.55;3.00;;;22.00;99.90;;;;;;1915166;74;21131;-77
2022/05/11 09:20:28;;;;;;;6.70;3.35;;;22.10;99.90;;;;;;1906611;75;21046;-78
2022/05/11 09:26:03;;;;;;;4.15;3.15;;;22.30;99.90;;;;;;1933943;72;22136;-78
2022/05/11 09:34:37;;;;;;;4.22;2.70;;;22.50;99.90;;;;;;1964784;72;22107;-78
2022/05/11 09:40:50;;;;;;;20.10;3.37;;;22.70;99.90;;;;;;1946107;72;22129;-78
2022/05/11 09:44:05;;;;;;;4.25;2.90;;;22.70;99.90;;;;;;1906164;75;21523;-79
2022/05/11 09:50:25;;;;;;;5.50;2.55;;;23.00;99.90;;;;;;1943401;72;22122;-78
2022/05/11 09:53:37;;;;;;;3.27;2.70;;;23.10;99.90;;;;;;1911686;74;21143;-78
2022/05/11 09:59:32;;;;;;;5.80;3.20;;;23.30;99.90;;;;;;1952346;72;22639;-78
2022/05/11 10:02:44;;;;;;;7.15;3.22;;;23.40;99.90;;;;;;1928808;73;21058;-77
2022/05/11 10:05:55;;;;;;;5.45;3.05;;;23.50;99.90;;;;;;1917353;73;21051;-77
2022/05/11 10:11:36;;;;;;;4.90;3.05;;;23.70;99.90;;;;;;1937114;72;22114;-78
2022/05/11 10:27:13;;;;;;;6.47;3.80;;;23.90;99.90;;;;;;1937895;72;28134;-78
2022/05/11 10:30:28;;;;;;;5.28;3.20;;;23.90;99.90;;;;;;1938196;73;21136;-77
2022/05/11 10:33:46;;;;;;;9.98;4.03;;;23.90;99.90;;;;;;1939445;73;21072;-77
2022/05/11 10:36:43;;;;;;;5.25;3.02;;;24.00;99.90;;;;;;1917474;75;21118;-77
2022/05/11 10:39:59;;;;;;;4.03;2.87;;;24.30;99.90;;;;;;1917512;75;21051;-77
2022/05/11 10:45:36;;;;;;;7.42;3.12;;;24.50;99.90;;;;;;1925811;72;22153;-79
2022/05/11 10:51:34;;;;;;;3.60;2.70;;;24.70;99.90;;;;;;1933015;72;22241;-78
2022/05/11 10:54:50;;;;;;;3.60;2.25;;;24.70;99.90;;;;;;1906678;75;21039;-78
2022/05/11 10:58:09;;;;;;;2.42;2.02;;;24.70;99.90;;;;;;1906331;75;21043;-78
2022/05/11 11:01:03;;;;;;;2.98;2.35;;;24.90;99.90;;;;;;1906261;75;21056;-78
2022/05/11 11:04:28;;;;;;;2.42;2.12;;;25.10;99.90;;;;;;1890158;75;21057;-78
2022/05/11 11:07:24;;;;;;;3.52;2.22;;;25.20;99.90;;;;;;1888411;75;21170;-78
2022/05/11 11:10:32;;;;;;;2.40;2.20;;;25.20;99.90;;;;;;1900087;75;21130;-79
2022/05/11 11:13:42;;;;;;;4.20;2.20;;;25.40;99.90;;;;;;1897303;75;21276;-78
2022/05/11 11:16:36;;;;;;;4.37;2.20;;;25.40;99.90;;;;;;1896281;75;21486;-78
2022/05/11 11:22:08;;;;;;;3.10;2.10;;;25.60;99.90;;;;;;1949587;72;22169;-78
2022/05/11 11:25:23;;;;;;;2.67;2.10;;;25.60;99.90;;;;;;1904754;75;21630;-78
2022/05/11 11:28:35;;;;;;;3.08;2.10;;;25.70;99.90;;;;;;1897464;75;21050;-79
2022/05/11 11:31:27;;;;;;;5.78;1.92;;;25.80;99.90;;;;;;1899403;75;21092;-79
2022/05/11 11:34:38;;;;;;;4.03;2.27;;;25.80;99.90;;;;;;1898792;75;21047;-78
2022/05/11 11:37:49;;;;;;;3.62;2.30;;;25.80;99.90;;;;;;1917500;75;21052;-79
2022/05/11 11:43:45;;;;;;;3.55;2.10;;;25.90;99.90;;;;;;1935968;72;22269;-78
2022/05/11 11:46:56;;;;;;;3.40;2.05;;;26.00;99.90;;;;;;1899909;75;21040;-79
2022/05/11 11:50:17;;;;;;;3.15;2.00;;;26.20;99.90;;;;;;1898999;75;21147;-78
2022/05/11 11:53:15;;;;;;;3.05;2.37;;;26.20;99.90;;;;;;1897609;75;21172;-79
2022/05/11 11:59:42;;;;;;;4.23;2.50;;;26.40;99.90;;;;;;1930934;72;28059;-80
2022/05/11 12:02:52;;;;;;;3.05;2.40;;;26.60;99.90;;;;;;1906383;75;21129;-78
2022/05/11 12:18:00;;;;;;;3.42;2.10;;;26.60;99.90;;;;;;1948980;72;22169;-78
2022/05/11 12:21:13;;;;;;;5.78;2.70;;;26.70;99.90;;;;;;1895780;75;21153;-78
2022/05/11 12:24:26;;;;;;;6.60;2.17;;;26.70;99.90;;;;;;1907048;75;21079;-78
2022/05/11 12:30:07;;;;;;;3.42;2.40;;;26.80;99.90;;;;;;1958134;72;22115;-78
2022/05/11 12:33:28;;;;;;;6.33;2.72;;;27.00;99.90;;;;;;1902345;75;21031;-78
2022/05/11 12:36:39;;;;;;;2.70;2.50;;;27.10;99.90;;;;;;1899217;75;21066;-78
2022/05/11 12:39:33;;;;;;;3.35;2.50;;;27.10;99.90;;;;;;1898323;75;21099;-78
2022/05/11 12:42:45;;;;;;;3.50;2.45;;;27.10;99.90;;;;;;1884898;76;21047;-79
2022/05/11 12:45:40;;;;;;;3.70;2.25;;;27.20;99.90;;;;;;1914964;75;21117;-79
2022/05/11 12:48:33;;;;;;;3.62;2.40;;;27.20;99.90;;;;;;1891804;75;21070;-79
2022/05/11 12:51:31;;;;;;;3.77;1.92;;;27.30;99.90;;;;;;1884800;76;21142;-79
2022/05/11 12:54:25;;;;;;;5.08;2.08;;;27.40;99.90;;;;;;1901915;75;21103;-79
2022/05/11 12:57:18;;;;;;;3.92;1.98;;;27.50;99.90;;;;;;1884763;75;21089;-79
2022/05/11 13:00:30;;;;;;;4.20;2.25;;;27.50;99.90;;;;;;1892150;75;21522;-78
2022/05/11 13:03:28;;;;;;;1.90;1.70;;;27.40;99.90;;;;;;1895276;75;21168;-79
2022/05/11 13:06:28;;;;;;;4.92;2.15;;;27.20;99.90;;;;;;1895301;75;21091;-78
2022/05/11 13:09:23;;;;;;;4.58;2.00;;;27.30;99.90;;;;;;1917176;75;21113;-79
2022/05/11 13:12:16;;;;;;;4.47;2.10;;;27.40;99.90;;;;;;1898796;75;21127;-78
2022/05/11 13:15:10;;;;;;;2.85;1.70;;;27.40;99.90;;;;;;1898790;75;21080;-78
2022/05/11 13:18:02;;;;;;;5.03;2.02;;;27.40;99.90;;;;;;1885783;75;21062;-78
2022/05/11 13:20:56;;;;;;;2.72;1.98;;;27.50;99.90;;;;;;1911750;75;21099;-79
2022/05/11 13:23:52;;;;;;;2.40;1.72;;;27.30;99.90;;;;;;1895710;75;21212;-78
2022/05/11 13:26:45;;;;;;;4.37;1.95;;;27.30;99.90;;;;;;1899591;75;21142;-79
2022/05/11 13:29:37;;;;;;;2.20;1.80;;;27.40;99.90;;;;;;1892493;75;21111;-79
2022/05/11 13:32:28;;;;;;;2.75;1.87;;;27.60;99.40;;;;;;1883375;75;21079;-78
2022/05/11 13:35:29;;;;;;;7.08;2.10;;;27.30;99.70;;;;;;1883143;75;21063;-78
2022/05/11 13:38:21;;;;;;;3.33;1.92;;;27.30;99.90;;;;;;1883562;75;21152;-78
2022/05/11 13:41:15;;;;;;;3.37;1.85;;;27.30;99.80;;;;;;1888790;75;21100;-78
2022/05/11 13:44:22;;;;;;;2.42;1.92;;;27.40;99.70;;;;;;1883999;75;21121;-78
2022/05/11 13:50:42;;;;;;;5.15;1.85;;;27.60;99.10;;;;;;1896652;75;21138;-78
2022/05/11 13:53:35;;;;;;;4.17;2.00;;;27.60;98.90;;;;;;1895258;75;21044;-78
2022/05/11 13:56:29;;;;;;;3.77;2.00;;;27.60;99.10;;;;;;1894757;75;21135;-78
2022/05/11 13:59:23;;;;;;;2.85;1.90;;;27.60;98.80;;;;;;1896203;75;21055;-79
2022/05/11 14:02:16;;;;;;;5.05;1.95;;;27.80;98.50;;;;;;1899954;75;21117;-78
2022/05/11 14:05:09;;;;;;;1.65;1.47;;;28.10;98.50;;;;;;1905805;75;21593;-78
2022/05/11 14:08:01;;;;;;;7.37;2.20;;;28.70;97.90;;;;;;1906304;75;21526;-78
2022/05/11 14:10:53;;;;;;;3.12;1.80;;;28.80;97.10;;;;;;1885137;75;21541;-78
2022/05/11 14:13:44;;;;;;;4.05;2.02;;;28.90;97.00;;;;;;1916818;75;21043;-78
2022/05/11 14:16:36;;;;;;;3.00;1.80;;;29.20;97.00;;;;;;1904872;75;21059;-78
2022/05/11 14:19:31;;;;;;;6.30;2.00;;;29.40;96.80;;;;;;1906346;75;21143;-78
2022/05/11 14:22:23;;;;;;;5.62;1.95;;;29.60;96.00;;;;;;1886188;75;21102;-79
2022/05/11 14:25:17;;;;;;;3.42;2.00;;;29.90;95.50;;;;;;1916983;75;21165;-78
2022/05/11 14:28:10;;;;;;;3.47;2.00;;;30.00;94.80;;;;;;1885882;75;21459;-78
2022/05/11 14:31:02;;;;;;;4.00;1.90;;;30.10;94.70;;;;;;1897161;74;21597;-78
2022/05/11 14:33:54;;;;;;;10.48;2.80;;;30.10;94.20;;;;;;1904585;74;21127;-78
2022/05/11 14:36:46;;;;;;;3.08;2.02;;;30.10;93.90;;;;;;1905404;74;21095;-79
2022/05/11 14:39:38;;;;;;;3.42;1.90;;;30.20;93.40;;;;;;1910216;74;21167;-79
2022/05/11 14:42:30;;;;;;;3.37;2.10;;;29.80;93.20;;;;;;1904626;74;21051;-78
2022/05/11 14:45:22;;;;;;;5.15;2.00;;;30.00;93.10;;;;;;1904345;74;21506;-78
2022/05/11 14:48:20;;;;;;;4.58;1.70;;;30.00;92.70;;;;;;1904383;74;21080;-78
2022/05/11 14:51:13;;;;;;;3.67;2.20;;;30.00;92.30;;;;;;1908163;74;21133;-78
2022/05/11 14:54:05;;;;;;;4.85;2.20;;;30.20;92.20;;;;;;1907073;74;21088;-79
2022/05/11 15:03:18;;;;;;;3.65;1.92;;;30.50;90.90;;;;;;1904469;74;21087;-78
2022/05/11 15:06:11;;;;;;;3.65;1.75;;;31.00;90.20;;;;;;1903094;74;21053;-79
2022/05/11 15:09:03;;;;;;;3.60;2.00;;;30.80;89.30;;;;;;1912163;74;21112;-79
2022/05/11 15:15:06;;;;;;;6.87;1.98;;;30.70;88.50;;;;;;1906738;74;21104;-78
2022/05/11 15:18:00;;;;;;;2.58;1.82;;;31.10;87.70;;;;;;1896128;74;21062;-78
2022/05/11 15:20:51;;;;;;;2.83;2.15;;;31.50;86.00;;;;;;1915862;74;21079;-78
2022/05/11 15:23:42;;;;;;;2.15;1.98;;;31.60;85.50;;;;;;1914028;74;21218;-78
2022/05/11 15:26:34;;;;;;;2.40;1.82;;;32.00;84.20;;;;;;1911017;74;21055;-78
2022/05/11 15:29:26;;;;;;;4.70;2.08;;;32.20;84.20;;;;;;1892957;74;21197;-78
2022/05/11 15:32:20;;;;;;;5.25;2.05;;;32.10;81.70;;;;;;1885959;74;21171;-79
2022/05/11 15:35:14;;;;;;;2.98;2.08;;;31.90;81.20;;;;;;1905787;75;21051;-78
2022/05/11 15:38:05;;;;;;;4.25;1.85;;;31.70;81.20;;;;;;1900150;75;21128;-78
2022/05/11 15:40:57;;;;;;;3.58;1.70;;;31.60;80.00;;;;;;1884299;75;21492;-78
2022/05/11 15:43:48;;;;;;;2.80;1.60;;;31.70;80.30;;;;;;1890608;75;21598;-78
2022/05/11 15:46:40;;;;;;;3.95;1.90;;;32.10;79.40;;;;;;1895191;75;22255;-78
2022/05/11 15:49:32;;;;;;;6.65;2.05;;;32.00;78.90;;;;;;1898408;75;21063;-78
2022/05/11 15:52:25;;;;;;;2.05;1.40;;;31.70;78.50;;;;;;1884117;75;21116;-78
2022/05/11 15:55:18;;;;;;;4.35;1.70;;;31.90;77.30;;;;;;1892328;75;21526;-78
2022/05/11 15:58:09;;;;;;;4.03;1.47;;;31.60;77.20;;;;;;1894854;75;21281;-78
2022/05/11 16:01:04;;;;;;;5.08;1.75;;;31.60;76.20;;;;;;1896548;75;21507;-78
2022/05/11 16:03:56;;;;;;;3.67;1.70;;;31.60;75.80;;;;;;1899780;75;21051;-78
2022/05/11 16:06:47;;;;;;;3.77;1.92;;;32.30;74.60;;;;;;1894637;75;21051;-78
2022/05/11 16:09:39;;;;;;;3.10;1.60;;;32.70;73.10;;;;;;1889538;75;21072;-78
2022/05/11 16:12:34;;;;;;;10.00;1.80;;;32.30;72.90;;;;;;1905809;75;21055;-78
2022/05/11 16:15:29;;;;;;;2.85;1.50;;;32.30;72.60;;;;;;1902826;75;21050;-78
2022/05/11 16:21:30;;;;;;;3.80;1.82;;;32.00;71.50;;;;;;1897908;75;21184;-78
2022/05/11 16:24:22;;;;;;;2.80;1.40;;;31.70;71.50;;;;;;1894819;75;21098;-77
2022/05/11 16:27:14;;;;;;;2.35;1.47;;;31.60;71.60;;;;;;1892095;75;21067;-77
2022/05/11 16:30:09;;;;;;;3.47;1.60;;;32.30;71.60;;;;;;1903791;75;21088;-77
2022/05/11 16:33:02;;;;;;;2.47;1.30;;;32.60;70.40;;;;;;1906574;74;21134;-78
2022/05/11 16:35:53;;;;;;;2.45;1.70;;;32.30;69.80;;;;;;1904105;74;21082;-78
2022/05/11 16:38:45;;;;;;;1.80;1.50;;;32.30;69.50;;;;;;1904485;74;21099;-77
2022/05/11 16:41:37;;;;;;;3.25;1.92;;;32.30;69.20;;;;;;1904428;74;21109;-77
2022/05/11 16:44:33;;;;;;;3.10;2.12;;;32.20;69.20;;;;;;1909260;74;21092;-77
2022/05/11 16:47:25;;;;;;;5.75;4.62;;;32.10;68.80;;;;;;1893554;76;21131;-78
2022/05/11 16:50:16;;;;;;;4.28;2.15;;;32.10;68.60;;;;;;1915781;74;21601;-78
2022/05/11 16:53:08;;;;;;;2.27;1.25;;;32.00;68.50;;;;;;1915555;74;21125;-77
2022/05/11 16:56:00;;;;;;;4.80;1.62;;;32.30;67.70;;;;;;1912764;74;21214;-77
2022/05/11 16:58:51;;;;;;;4.62;1.32;;;31.90;67.50;;;;;;1907694;74;21463;-77
2022/05/11 17:01:45;;;;;;;3.75;1.70;;;31.80;67.60;;;;;;1904572;74;21514;-77
2022/05/11 17:04:36;;;;;;;1.85;1.40;;;31.40;67.90;;;;;;1904455;74;21058;-77
2022/05/11 17:07:28;;;;;;;7.00;1.90;;;31.20;68.40;;;;;;1926423;74;21051;-78
2022/05/11 17:10:20;;;;;;;2.12;1.12;;;31.30;67.80;;;;;;1911326;74;21153;-78
2022/05/11 17:13:13;;;;;;;2.87;1.35;;;30.60;67.80;;;;;;1903215;74;21047;-78
2022/05/11 17:16:05;;;;;;;7.47;1.32;;;30.10;69.30;;;;;;1904027;74;21159;-78
2022/05/11 17:18:57;;;;;;;6.72;1.40;;;29.90;70.00;;;;;;1905098;74;21063;-78
2022/05/11 17:21:49;;;;;;;3.42;1.17;;;29.50;71.00;;;;;;1910257;74;21035;-78
2022/05/11 17:24:41;;;;;;;3.35;1.30;;;29.50;71.20;;;;;;1926453;74;21102;-78
2022/05/11 17:27:32;;;;;;;3.55;1.30;;;29.70;72.10;;;;;;1904308;74;21090;-78
2022/05/11 17:30:24;;;;;;;3.33;1.40;;;29.50;72.60;;;;;;1904531;74;21150;-78
2022/05/11 17:33:16;;;;;;;3.25;1.52;;;29.30;74.40;;;;;;1900316;74;21115;-78
2022/05/11 17:36:08;;;;;;;2.87;1.40;;;29.20;73.30;;;;;;1884488;75;21044;-78
2022/05/11 17:38:59;;;;;;;3.17;1.45;;;29.20;73.20;;;;;;1882992;75;21088;-78
2022/05/11 17:41:50;;;;;;;3.30;1.60;;;29.30;73.00;;;;;;1882870;75;21067;-77
2022/05/11 17:44:42;;;;;;;3.95;1.62;;;29.80;72.20;;;;;;1886012;75;21099;-77
2022/05/11 17:47:33;;;;;;;3.58;1.20;;;29.90;71.80;;;;;;1885563;75;21118;-77
2022/05/11 17:50:25;;;;;;;1.47;1.10;;;29.60;70.80;;;;;;1882964;75;21125;-77
2022/05/11 17:53:18;;;;;;;5.40;2.42;;;29.10;71.60;;;;;;1882897;75;21175;-78
2022/05/11 17:56:09;;;;;;;7.22;1.52;;;28.50;71.40;;;;;;1884623;75;21129;-77
2022/05/11 17:59:00;;;;;;;14.78;9.68;;;27.70;72.80;;;;;;1872056;77;21106;-77
2022/05/11 18:01:52;;;;;;;3.87;3.05;;;27.40;74.20;;;;;;1893751;75;21069;-77
2022/05/11 18:04:44;;;;;;;6.58;4.62;;;27.10;75.00;;;;;;1877142;75;21048;-78
2022/05/11 18:07:35;;;;;;;2.25;1.40;;;27.00;75.20;;;;;;1883005;75;21066;-77
2022/05/11 18:10:30;;;;;;;3.72;1.60;;;26.70;75.90;;;;;;1901035;75;21080;-77
2022/05/11 18:13:21;;;;;;;4.58;2.08;;;26.50;76.60;;;;;;1895973;75;21101;-77